Time;durP1;ratioP1;P1;durP2;ratioP2;P2;SDS_P1;SDS_P2;PMS_P1;PMS_P2;Temp;Humidity;BMP_temperature;BMP_pressure;BME280_temperature;BME280_humidity;BME280_pressure;Samples;Min_cycle;Max_cycle;Signal;HPM_P1;HPM_P2
2021/08/25 00:00:34;;;;;;;8.23;2.00;;;17.50;99.90;;;;;;5027745;28;20056;-75
2021/08/25 00:03:00;;;;;;;5.38;1.90;;;17.50;99.90;;;;;;5029675;28;20037;-75
2021/08/25 00:05:25;;;;;;;4.82;1.70;;;17.50;99.90;;;;;;5028259;28;20040;-75
2021/08/25 00:07:51;;;;;;;5.70;1.60;;;17.40;99.90;;;;;;5029387;28;20037;-75
2021/08/25 00:10:17;;;;;;;7.80;1.58;;;17.40;99.90;;;;;;5028657;28;20096;-75
2021/08/25 00:12:42;;;;;;;5.43;2.38;;;17.40;99.90;;;;;;5028134;28;20052;-75
2021/08/25 00:15:09;;;;;;;4.40;1.80;;;17.30;99.90;;;;;;5028513;28;20068;-75
2021/08/25 00:17:35;;;;;;;4.93;1.95;;;17.40;99.90;;;;;;5028241;28;20065;-75
2021/08/25 00:20:01;;;;;;;3.65;1.88;;;17.30;99.90;;;;;;5028588;28;20036;-75
2021/08/25 00:22:27;;;;;;;7.00;1.92;;;17.30;99.90;;;;;;5028764;28;20029;-75
2021/08/25 00:24:54;;;;;;;5.22;1.85;;;17.30;99.90;;;;;;5028116;28;20820;-75
2021/08/25 00:27:19;;;;;;;5.35;1.70;;;17.30;99.90;;;;;;5022495;28;20064;-75
2021/08/25 00:29:45;;;;;;;7.38;2.20;;;17.30;99.90;;;;;;5013200;28;20038;-75
2021/08/25 00:32:10;;;;;;;3.70;1.70;;;17.30;99.90;;;;;;5037077;28;20374;-74
2021/08/25 00:34:36;;;;;;;4.43;1.90;;;17.30;99.90;;;;;;5041307;28;20387;-75
2021/08/25 00:37:02;;;;;;;4.65;1.90;;;17.20;99.90;;;;;;5028850;28;20037;-75
2021/08/25 00:39:27;;;;;;;4.72;2.13;;;17.30;99.90;;;;;;5032033;28;20029;-75
2021/08/25 00:41:53;;;;;;;3.78;1.77;;;17.30;99.90;;;;;;5031557;28;20137;-75
2021/08/25 00:44:19;;;;;;;3.53;1.80;;;17.30;99.90;;;;;;5031924;28;20132;-75
2021/08/25 00:46:45;;;;;;;4.45;2.22;;;17.30;99.90;;;;;;5031063;28;20036;-75
2021/08/25 00:49:13;;;;;;;5.28;1.88;;;17.40;99.90;;;;;;5031909;28;20033;-75
2021/08/25 00:51:40;;;;;;;4.75;2.05;;;17.40;99.90;;;;;;5031688;28;20029;-75
2021/08/25 00:54:06;;;;;;;3.92;2.03;;;17.40;99.90;;;;;;5031606;28;20498;-75
2021/08/25 00:56:32;;;;;;;4.13;1.83;;;17.30;99.90;;;;;;5032045;28;20026;-75
2021/08/25 00:58:58;;;;;;;4.38;1.90;;;17.40;99.90;;;;;;5031203;28;20053;-75
2021/08/25 01:01:26;;;;;;;4.85;1.80;;;17.30;99.90;;;;;;5022010;28;20093;-75
2021/08/25 01:03:57;;;;;;;6.85;2.03;;;17.40;99.90;;;;;;5012385;28;20042;-75
2021/08/25 01:06:25;;;;;;;6.43;2.05;;;17.40;99.90;;;;;;5019303;28;20471;-75
2021/08/25 01:08:51;;;;;;;4.53;2.00;;;17.40;99.90;;;;;;5032380;28;20041;-75
2021/08/25 01:11:17;;;;;;;3.70;1.83;;;17.40;99.90;;;;;;5030781;28;20641;-75
2021/08/25 01:13:43;;;;;;;6.05;1.65;;;17.40;99.90;;;;;;5032060;28;20049;-75
2021/08/25 01:16:11;;;;;;;5.57;1.92;;;17.40;99.90;;;;;;5031069;28;20030;-75
2021/08/25 01:18:38;;;;;;;3.08;1.75;;;17.30;99.90;;;;;;5031774;28;20045;-75
2021/08/25 01:21:05;;;;;;;3.88;2.00;;;17.30;99.90;;;;;;5029488;28;20033;-75
2021/08/25 01:23:43;;;;;;;4.60;2.30;;;17.40;99.90;;;;;;5031955;28;20033;-75
2021/08/25 01:26:10;;;;;;;4.07;2.10;;;17.40;99.90;;;;;;5030668;28;20034;-74
2021/08/25 01:28:41;;;;;;;3.97;2.08;;;17.40;99.90;;;;;;5031493;28;20037;-75
2021/08/25 01:31:07;;;;;;;4.33;2.33;;;17.30;99.90;;;;;;5030355;28;20069;-75
2021/08/25 01:33:33;;;;;;;3.90;1.77;;;17.40;99.90;;;;;;5030765;28;20963;-75
2021/08/25 01:35:59;;;;;;;4.32;2.00;;;17.40;99.90;;;;;;5028928;28;20379;-75
2021/08/25 01:38:46;;;;;;;6.88;2.03;;;17.30;99.90;;;;;;5012649;28;20112;-75
2021/08/25 01:41:12;;;;;;;5.28;2.25;;;17.40;99.90;;;;;;5011446;28;20034;-75
2021/08/25 01:43:38;;;;;;;6.68;2.03;;;17.40;99.90;;;;;;5027305;28;20033;-75
2021/08/25 01:46:03;;;;;;;4.22;1.70;;;17.40;99.90;;;;;;5031199;28;20113;-75
2021/08/25 01:48:32;;;;;;;4.18;1.70;;;17.40;99.90;;;;;;5030655;28;20062;-75
2021/08/25 01:50:58;;;;;;;5.10;2.05;;;17.50;99.90;;;;;;5030846;28;20044;-75
2021/08/25 01:53:24;;;;;;;5.10;2.38;;;17.50;99.90;;;;;;5030856;28;20033;-75
2021/08/25 01:55:49;;;;;;;4.32;1.98;;;17.50;99.90;;;;;;5021656;28;20557;-75
2021/08/25 01:58:15;;;;;;;4.65;1.75;;;17.50;99.90;;;;;;5031667;28;20470;-75
2021/08/25 02:00:41;;;;;;;5.65;2.20;;;17.50;99.90;;;;;;5035686;28;20117;-75
2021/08/25 02:03:06;;;;;;;4.63;2.33;;;17.50;99.90;;;;;;5029602;28;20048;-75
2021/08/25 02:05:32;;;;;;;5.50;2.33;;;17.40;99.90;;;;;;5030881;28;20105;-75
2021/08/25 02:07:57;;;;;;;5.35;2.20;;;17.40;99.90;;;;;;5029760;28;20061;-75
2021/08/25 02:10:23;;;;;;;5.55;2.60;;;17.40;99.90;;;;;;5020648;28;20107;-75
2021/08/25 02:12:49;;;;;;;5.63;2.50;;;17.40;99.90;;;;;;5029862;28;20045;-75
2021/08/25 02:15:14;;;;;;;6.63;2.40;;;17.50;99.90;;;;;;5030604;28;20514;-75
2021/08/25 02:17:42;;;;;;;5.72;2.50;;;17.50;99.90;;;;;;5030051;28;20035;-75
2021/08/25 02:20:08;;;;;;;5.63;2.30;;;17.50;99.90;;;;;;5026554;28;20041;-75
2021/08/25 02:22:34;;;;;;;6.40;2.47;;;17.50;99.90;;;;;;5030116;28;20056;-75
2021/08/25 02:25:00;;;;;;;4.13;2.00;;;17.50;99.90;;;;;;5029878;28;20431;-75
2021/08/25 02:27:25;;;;;;;5.30;2.80;;;17.50;99.90;;;;;;5030242;28;20953;-75
2021/08/25 02:29:55;;;;;;;3.85;2.15;;;17.50;99.90;;;;;;5027593;28;20456;-75
2021/08/25 02:32:25;;;;;;;4.82;2.47;;;17.50;99.90;;;;;;5029543;28;20099;-75
2021/08/25 02:34:51;;;;;;;8.82;2.45;;;17.50;99.90;;;;;;5027335;28;20203;-75
2021/08/25 02:37:18;;;;;;;7.28;2.55;;;17.50;99.90;;;;;;5029946;28;20412;-75
2021/08/25 02:39:43;;;;;;;4.32;2.42;;;17.50;99.90;;;;;;5029238;28;20040;-75
2021/08/25 02:42:09;;;;;;;7.03;3.25;;;17.40;99.90;;;;;;5030430;28;20414;-75
2021/08/25 02:44:35;;;;;;;7.40;3.00;;;17.40;99.90;;;;;;5029002;28;20034;-75
2021/08/25 02:47:01;;;;;;;7.53;2.67;;;17.30;99.90;;;;;;5029633;28;20041;-75
2021/08/25 02:49:26;;;;;;;7.45;3.03;;;17.30;99.90;;;;;;5031595;28;20226;-75
2021/08/25 02:51:52;;;;;;;5.70;2.15;;;17.30;99.90;;;;;;5049980;28;20188;-75
2021/08/25 02:54:17;;;;;;;6.15;2.05;;;17.30;99.90;;;;;;5032419;28;20038;-75
2021/08/25 02:56:43;;;;;;;4.85;2.00;;;17.30;99.90;;;;;;5029771;28;20029;-75
2021/08/25 02:59:08;;;;;;;5.47;2.70;;;17.30;99.90;;;;;;5029637;28;20382;-75
2021/08/25 03:01:34;;;;;;;5.53;2.47;;;17.30;99.90;;;;;;5028732;28;20021;-75
2021/08/25 03:04:00;;;;;;;5.97;2.33;;;17.30;99.90;;;;;;5029389;28;20772;-75
2021/08/25 03:06:25;;;;;;;4.20;2.33;;;17.30;99.90;;;;;;5029403;28;20044;-75
2021/08/25 03:08:51;;;;;;;4.30;2.20;;;17.40;99.90;;;;;;5030256;28;20030;-75
2021/08/25 03:11:17;;;;;;;6.13;2.55;;;17.30;99.90;;;;;;5028808;28;20112;-75
2021/08/25 03:13:42;;;;;;;9.60;2.88;;;17.20;99.90;;;;;;5029382;28;20050;-75
2021/08/25 03:16:09;;;;;;;6.55;2.55;;;17.20;99.90;;;;;;5028544;28;20037;-75
2021/08/25 03:18:35;;;;;;;6.13;3.08;;;17.20;99.90;;;;;;5029682;28;20025;-75
2021/08/25 03:21:01;;;;;;;4.90;2.45;;;17.20;99.90;;;;;;5029381;28;20088;-77
2021/08/25 03:23:26;;;;;;;5.85;2.50;;;17.30;99.90;;;;;;5029000;28;20136;-75
2021/08/25 03:25:53;;;;;;;7.13;2.67;;;17.20;99.90;;;;;;5029572;28;20037;-75
2021/08/25 03:28:19;;;;;;;8.02;2.70;;;17.20;99.90;;;;;;5029445;28;20087;-75
2021/08/25 03:30:44;;;;;;;5.13;2.45;;;17.20;99.90;;;;;;5029497;28;20119;-75
2021/08/25 03:33:10;;;;;;;7.88;2.83;;;17.20;99.90;;;;;;5029110;28;20037;-75
2021/08/25 03:35:36;;;;;;;6.78;2.60;;;17.30;99.90;;;;;;5029655;28;20033;-75
2021/08/25 03:38:02;;;;;;;5.50;2.90;;;17.20;99.90;;;;;;5011315;28;20696;-75
2021/08/25 03:40:27;;;;;;;3.63;1.75;;;17.10;99.90;;;;;;5027976;28;20119;-75
2021/08/25 03:42:53;;;;;;;6.32;3.00;;;17.20;99.90;;;;;;5021081;28;20029;-75
2021/08/25 03:45:19;;;;;;;4.07;2.42;;;17.20;99.90;;;;;;5024360;28;20077;-75
2021/08/25 03:47:44;;;;;;;4.82;2.40;;;17.20;99.90;;;;;;5024294;28;20155;-75
2021/08/25 03:50:10;;;;;;;6.72;2.33;;;17.20;99.90;;;;;;5025102;28;20053;-75
2021/08/25 03:52:35;;;;;;;4.80;2.58;;;17.10;99.90;;;;;;5017549;28;20080;-75
2021/08/25 03:55:01;;;;;;;7.10;3.15;;;17.20;99.90;;;;;;5027757;28;20164;-75
2021/08/25 03:57:27;;;;;;;5.63;2.80;;;17.20;99.90;;;;;;5029011;28;20449;-75
2021/08/25 03:59:53;;;;;;;5.80;3.28;;;17.20;99.90;;;;;;5028494;28;21000;-75
2021/08/25 04:02:18;;;;;;;6.75;3.40;;;17.00;99.90;;;;;;5021889;28;20029;-75
2021/08/25 04:04:44;;;;;;;6.22;2.85;;;17.00;99.90;;;;;;5020430;28;20159;-75
2021/08/25 04:07:10;;;;;;;7.22;3.58;;;17.00;99.90;;;;;;5020890;28;20033;-75
2021/08/25 04:09:35;;;;;;;5.47;2.90;;;16.90;99.90;;;;;;5013328;28;20045;-75
2021/08/25 04:12:01;;;;;;;6.45;2.70;;;16.90;99.90;;;;;;5010182;28;20037;-75
2021/08/25 04:14:26;;;;;;;7.13;2.83;;;17.00;99.90;;;;;;5016931;28;20387;-75
2021/08/25 04:16:52;;;;;;;6.45;2.72;;;16.90;99.90;;;;;;5032543;28;20034;-75
2021/08/25 04:19:18;;;;;;;9.85;3.33;;;16.90;99.90;;;;;;5023814;28;20492;-75
2021/08/25 04:21:43;;;;;;;6.60;3.35;;;16.80;99.90;;;;;;5013044;28;20030;-75
2021/08/25 04:24:09;;;;;;;6.70;3.13;;;16.80;99.90;;;;;;5012753;28;20137;-76
2021/08/25 04:26:35;;;;;;;8.98;3.50;;;16.80;99.90;;;;;;5016141;28;20117;-76
2021/08/25 04:29:00;;;;;;;6.97;3.40;;;16.80;99.90;;;;;;5026679;28;20050;-75
2021/08/25 04:31:26;;;;;;;7.57;3.08;;;16.80;99.90;;;;;;5012305;28;20105;-75
2021/08/25 04:33:51;;;;;;;6.22;3.40;;;16.80;99.90;;;;;;5012900;28;20080;-76
2021/08/25 04:36:17;;;;;;;6.35;3.90;;;16.90;99.90;;;;;;5026059;28;20034;-75
2021/08/25 04:38:43;;;;;;;6.15;3.10;;;16.80;99.90;;;;;;5032590;28;20056;-75
2021/08/25 04:41:10;;;;;;;6.82;3.58;;;16.80;99.90;;;;;;5032197;28;20040;-75
2021/08/25 04:43:36;;;;;;;7.40;3.70;;;16.80;99.90;;;;;;5017392;28;20081;-75
2021/08/25 04:46:02;;;;;;;7.20;3.40;;;16.80;99.90;;;;;;5028976;28;20070;-75
2021/08/25 04:48:27;;;;;;;7.90;3.90;;;16.90;99.90;;;;;;5042255;28;20418;-75
2021/08/25 04:50:53;;;;;;;7.55;4.10;;;16.70;99.90;;;;;;5022006;28;20048;-75
2021/08/25 04:53:19;;;;;;;6.10;3.70;;;16.70;99.90;;;;;;5028115;28;20061;-75
2021/08/25 04:55:45;;;;;;;6.78;3.95;;;16.70;99.90;;;;;;5031472;28;20682;-75
2021/08/25 04:58:11;;;;;;;9.20;4.05;;;16.80;99.90;;;;;;5030270;28;20042;-75
2021/08/25 05:00:36;;;;;;;9.27;3.72;;;16.70;99.90;;;;;;5031980;28;20812;-76
2021/08/25 05:03:02;;;;;;;10.05;4.22;;;16.70;99.90;;;;;;5052223;28;20032;-75
2021/08/25 05:05:28;;;;;;;7.22;3.60;;;16.60;99.90;;;;;;5051631;28;20685;-75
2021/08/25 05:07:54;;;;;;;6.85;4.07;;;16.60;99.90;;;;;;5031835;28;20033;-75
2021/08/25 05:10:19;;;;;;;6.53;3.55;;;16.60;99.90;;;;;;5031604;28;20033;-75
2021/08/25 05:12:45;;;;;;;6.50;3.90;;;16.70;99.90;;;;;;5029720;28;20665;-76
2021/08/25 05:15:11;;;;;;;6.53;3.80;;;16.70;99.90;;;;;;5030269;28;20037;-75
2021/08/25 05:17:37;;;;;;;5.55;3.50;;;16.70;99.90;;;;;;5030828;28;20060;-76
2021/08/25 05:20:05;;;;;;;5.60;4.00;;;16.70;99.90;;;;;;5031896;28;20033;-75
2021/08/25 05:22:31;;;;;;;5.75;3.63;;;16.70;99.90;;;;;;5028468;28;20033;-75
2021/08/25 05:24:56;;;;;;;6.70;4.22;;;16.80;99.90;;;;;;5011586;28;20025;-75
2021/08/25 05:27:22;;;;;;;6.65;4.15;;;16.80;99.90;;;;;;5016412;28;20140;-75
2021/08/25 05:29:48;;;;;;;8.13;3.75;;;16.80;99.90;;;;;;5031301;28;20026;-75
2021/08/25 05:32:13;;;;;;;6.93;3.83;;;16.90;99.90;;;;;;5031368;28;20462;-76
2021/08/25 05:34:39;;;;;;;5.65;3.65;;;16.90;99.90;;;;;;5030352;28;20096;-75
2021/08/25 05:37:04;;;;;;;6.07;3.65;;;16.90;99.90;;;;;;5031309;28;20038;-75
2021/08/25 05:39:30;;;;;;;6.60;4.22;;;16.90;99.90;;;;;;5029228;28;20822;-75
2021/08/25 05:41:56;;;;;;;6.05;3.08;;;16.90;99.90;;;;;;5020510;28;20037;-75
2021/08/25 05:44:21;;;;;;;6.35;3.72;;;17.00;99.90;;;;;;5026421;28;20029;-75
2021/08/25 05:46:47;;;;;;;7.03;3.47;;;17.00;99.90;;;;;;5022404;28;20103;-75
2021/08/25 05:49:13;;;;;;;6.20;3.67;;;17.10;99.90;;;;;;5030334;28;20553;-75
2021/08/25 05:51:38;;;;;;;7.28;3.80;;;17.10;99.90;;;;;;5023348;28;20025;-75
2021/08/25 05:54:04;;;;;;;7.35;4.32;;;17.00;99.90;;;;;;5027124;28;20083;-76
2021/08/25 05:56:30;;;;;;;7.95;3.67;;;17.00;99.90;;;;;;5030428;28;20049;-75
2021/08/25 05:58:55;;;;;;;10.80;4.20;;;17.00;99.90;;;;;;5030020;28;20021;-76
2021/08/25 06:01:24;;;;;;;8.45;4.78;;;17.00;99.90;;;;;;5030479;28;20037;-76
2021/08/25 06:03:50;;;;;;;8.40;3.90;;;17.10;99.90;;;;;;5031644;28;20029;-75
2021/08/25 06:06:15;;;;;;;8.20;4.60;;;17.00;99.90;;;;;;5021771;28;20044;-75
2021/08/25 06:08:41;;;;;;;8.43;4.05;;;17.00;99.90;;;;;;5029892;28;20041;-75
2021/08/25 06:11:07;;;;;;;8.35;3.88;;;17.10;99.90;;;;;;5030247;28;20033;-75
2021/08/25 06:13:32;;;;;;;7.40;4.18;;;17.10;99.90;;;;;;5021985;28;20058;-75
2021/08/25 06:15:58;;;;;;;6.10;3.80;;;17.00;99.90;;;;;;5030818;28;20661;-75
2021/08/25 06:18:24;;;;;;;6.88;4.18;;;17.00;99.90;;;;;;5028141;28;20120;-75
2021/08/25 06:20:51;;;;;;;9.27;4.03;;;17.10;99.90;;;;;;5029685;28;20045;-75
2021/08/25 06:23:17;;;;;;;8.55;4.70;;;17.10;99.90;;;;;;5030100;28;20070;-75
2021/08/25 06:25:43;;;;;;;8.30;4.15;;;17.00;99.90;;;;;;5032147;28;20030;-75
2021/08/25 06:28:08;;;;;;;5.72;4.15;;;17.00;99.90;;;;;;5029047;28;20029;-75
2021/08/25 06:30:34;;;;;;;8.68;4.35;;;17.00;99.90;;;;;;5028212;28;20120;-75
2021/08/25 06:33:00;;;;;;;9.60;3.80;;;17.00;99.90;;;;;;5032589;28;20025;-75
2021/08/25 06:35:25;;;;;;;14.20;4.30;;;17.10;99.90;;;;;;5027792;28;20570;-75
2021/08/25 06:37:51;;;;;;;7.22;3.88;;;17.10;99.90;;;;;;5029054;28;20037;-75
2021/08/25 06:40:17;;;;;;;8.60;4.22;;;17.10;99.90;;;;;;5020595;28;20120;-76
2021/08/25 06:42:42;;;;;;;8.00;4.53;;;17.20;99.90;;;;;;5020297;28;20033;-77
2021/08/25 06:45:09;;;;;;;8.15;4.72;;;17.10;99.90;;;;;;5030745;28;20037;-77
2021/08/25 06:47:35;;;;;;;8.25;4.28;;;17.00;99.90;;;;;;5027791;28;20104;-77
2021/08/25 06:50:02;;;;;;;8.50;4.40;;;17.10;99.90;;;;;;5032973;28;20036;-76
2021/08/25 06:52:28;;;;;;;6.47;4.43;;;17.20;99.90;;;;;;5031346;28;20029;-78
2021/08/25 06:54:54;;;;;;;6.60;3.88;;;17.20;99.90;;;;;;5034207;28;20033;-76
2021/08/25 06:57:19;;;;;;;5.55;3.20;;;17.30;99.90;;;;;;5029576;28;20025;-77
2021/08/25 06:59:45;;;;;;;7.20;3.63;;;17.40;99.90;;;;;;5026755;28;20486;-76
2021/08/25 07:02:11;;;;;;;9.02;3.53;;;17.40;99.90;;;;;;5027177;28;20030;-76
2021/08/25 07:04:36;;;;;;;6.97;3.63;;;17.60;99.90;;;;;;5025445;28;20064;-76
2021/08/25 07:07:02;;;;;;;8.30;3.97;;;17.60;99.90;;;;;;5040526;28;20473;-76
2021/08/25 07:09:28;;;;;;;7.50;4.03;;;17.50;99.90;;;;;;5036765;28;20040;-77
2021/08/25 07:11:53;;;;;;;6.32;4.10;;;17.50;99.90;;;;;;5039391;28;20083;-77
2021/08/25 07:14:19;;;;;;;8.05;5.00;;;17.60;99.90;;;;;;5030387;28;20029;-76
2021/08/25 07:16:45;;;;;;;7.57;4.50;;;17.60;99.90;;;;;;5031016;28;20455;-77
2021/08/25 07:19:10;;;;;;;8.82;4.32;;;17.70;99.90;;;;;;5041056;28;20238;-76
2021/08/25 07:21:36;;;;;;;7.28;4.60;;;17.60;99.90;;;;;;5026693;28;20060;-77
2021/08/25 07:24:03;;;;;;;9.45;4.65;;;17.60;99.90;;;;;;5031025;28;20100;-77
2021/08/25 07:26:29;;;;;;;7.00;4.32;;;17.60;99.90;;;;;;5030540;28;20528;-76
2021/08/25 07:28:55;;;;;;;11.38;4.47;;;17.60;99.90;;;;;;5040951;28;20064;-76
2021/08/25 07:31:20;;;;;;;9.07;4.57;;;17.70;99.90;;;;;;5027763;28;20070;-76
2021/08/25 07:33:47;;;;;;;11.25;4.53;;;17.70;99.90;;;;;;5027854;28;20084;-76
2021/08/25 07:36:13;;;;;;;10.95;4.63;;;17.70;99.90;;;;;;5027787;28;20030;-76
2021/08/25 07:38:38;;;;;;;6.63;3.85;;;17.80;99.90;;;;;;5028126;28;20029;-76
2021/08/25 07:41:04;;;;;;;7.30;4.18;;;17.80;99.90;;;;;;5022351;28;20034;-76
2021/08/25 07:43:30;;;;;;;7.57;3.58;;;18.00;99.90;;;;;;5037195;28;20029;-76
2021/08/25 07:45:56;;;;;;;6.72;4.15;;;18.10;99.90;;;;;;5031715;28;20049;-76
2021/08/25 07:48:21;;;;;;;9.05;4.53;;;18.10;99.90;;;;;;5042505;28;20034;-76
2021/08/25 07:50:49;;;;;;;6.00;4.43;;;18.10;99.90;;;;;;5031900;28;20103;-76
2021/08/25 07:53:16;;;;;;;7.35;4.43;;;18.20;99.90;;;;;;5029265;28;20025;-76
2021/08/25 07:55:41;;;;;;;7.13;4.25;;;18.20;99.90;;;;;;5027781;28;20045;-76
2021/08/25 07:58:07;;;;;;;6.70;4.55;;;18.20;99.90;;;;;;5026299;28;20108;-76
2021/08/25 08:00:33;;;;;;;7.53;4.32;;;18.10;99.90;;;;;;5028952;28;20030;-76
2021/08/25 08:02:58;;;;;;;6.85;4.03;;;18.20;99.90;;;;;;5026010;28;20037;-76
2021/08/25 08:05:24;;;;;;;10.00;4.63;;;18.30;99.90;;;;;;5033345;28;20136;-76
2021/08/25 08:07:50;;;;;;;7.18;4.68;;;18.30;99.90;;;;;;5022959;28;20061;-76
2021/08/25 08:10:15;;;;;;;6.70;3.67;;;18.20;99.90;;;;;;5028445;28;20037;-76
2021/08/25 08:12:41;;;;;;;7.63;3.75;;;18.40;99.90;;;;;;5032624;28;20053;-76
2021/08/25 08:15:11;;;;;;;9.10;4.03;;;18.50;99.90;;;;;;5033151;28;20833;-76
2021/08/25 08:17:38;;;;;;;10.27;4.00;;;18.80;99.90;;;;;;5030396;28;20037;-76
2021/08/25 08:20:05;;;;;;;7.43;4.38;;;18.70;99.90;;;;;;5031360;28;20029;-76
2021/08/25 08:22:30;;;;;;;6.47;4.10;;;18.80;99.90;;;;;;5030850;28;20076;-76
2021/08/25 08:24:56;;;;;;;6.20;4.00;;;18.90;99.90;;;;;;5031672;28;20061;-76
2021/08/25 08:27:22;;;;;;;7.75;3.70;;;18.70;99.90;;;;;;5031394;28;20034;-76
2021/08/25 08:29:47;;;;;;;6.97;4.40;;;18.80;99.90;;;;;;5038716;28;20041;-76
2021/08/25 08:32:13;;;;;;;6.45;3.80;;;18.70;99.90;;;;;;5031608;28;20037;-76
2021/08/25 08:34:39;;;;;;;7.15;3.58;;;19.00;99.90;;;;;;5031124;28;20526;-76
2021/08/25 08:37:05;;;;;;;7.53;3.35;;;19.20;99.90;;;;;;5029867;28;20481;-76
2021/08/25 08:39:31;;;;;;;7.07;4.00;;;19.60;99.90;;;;;;5031895;28;20041;-76
2021/08/25 08:41:57;;;;;;;8.02;3.92;;;19.30;99.90;;;;;;5031229;28;20545;-76
2021/08/25 08:44:25;;;;;;;5.55;3.13;;;19.20;99.90;;;;;;5030889;28;20037;-76
2021/08/25 08:46:51;;;;;;;6.00;3.60;;;19.60;99.90;;;;;;5032781;28;20040;-76
2021/08/25 08:49:17;;;;;;;6.95;4.13;;;19.60;99.90;;;;;;5033397;28;20029;-76
2021/08/25 08:51:44;;;;;;;8.80;4.25;;;19.70;99.90;;;;;;5033192;28;20061;-76
2021/08/25 08:54:11;;;;;;;5.60;3.20;;;19.60;99.90;;;;;;5023269;28;20691;-76
2021/08/25 08:56:37;;;;;;;8.05;3.67;;;19.80;99.90;;;;;;5031766;28;20063;-76
2021/08/25 08:59:03;;;;;;;5.75;3.65;;;20.10;99.90;;;;;;5030029;28;20042;-76
2021/08/25 09:01:30;;;;;;;7.00;3.75;;;20.20;99.90;;;;;;5030843;28;20888;-76
2021/08/25 09:03:57;;;;;;;9.73;3.70;;;20.40;99.90;;;;;;5026489;28;20038;-76
2021/08/25 09:06:43;;;;;;;7.45;3.40;;;20.00;99.90;;;;;;5038813;28;20482;-75
2021/08/25 09:09:10;;;;;;;5.68;3.40;;;20.10;99.90;;;;;;5033835;28;20037;-76
2021/08/25 09:11:51;;;;;;;6.57;3.25;;;20.00;99.90;;;;;;5019218;28;20101;-75
2021/08/25 09:14:17;;;;;;;8.50;2.78;;;20.20;99.90;;;;;;5025200;28;20479;-75
2021/08/25 09:16:43;;;;;;;4.45;2.25;;;20.80;99.60;;;;;;5024453;28;20037;-76
2021/08/25 09:19:16;;;;;;;6.82;2.80;;;21.00;99.30;;;;;;5024670;28;20037;-76
2021/08/25 09:21:44;;;;;;;6.30;2.70;;;21.30;98.80;;;;;;5030639;28;20433;-76
2021/08/25 09:24:11;;;;;;;6.82;2.75;;;21.30;97.70;;;;;;5045481;28;20737;-76
2021/08/25 09:26:58;;;;;;;5.50;2.20;;;21.10;98.50;;;;;;5027306;28;20530;-76
2021/08/25 09:29:23;;;;;;;6.38;2.83;;;21.20;98.30;;;;;;5031703;28;20038;-76
2021/08/25 09:31:50;;;;;;;6.03;3.10;;;21.20;97.90;;;;;;5030469;28;20044;-76
2021/08/25 09:34:25;;;;;;;5.05;2.58;;;21.20;98.10;;;;;;5023191;28;20471;-76
2021/08/25 09:37:05;;;;;;;8.30;3.08;;;21.50;97.80;;;;;;5033483;28;20026;-76
2021/08/25 09:39:31;;;;;;;5.90;2.67;;;21.10;98.20;;;;;;5023729;28;20559;-76
2021/08/25 09:41:57;;;;;;;4.82;2.38;;;21.20;97.60;;;;;;5034117;28;20108;-76
2021/08/25 09:44:23;;;;;;;7.85;3.05;;;21.00;98.20;;;;;;5029982;28;20120;-76
2021/08/25 09:46:50;;;;;;;5.75;3.03;;;20.90;98.60;;;;;;5030800;28;20037;-76
2021/08/25 09:49:15;;;;;;;8.02;3.25;;;20.80;99.00;;;;;;5023765;28;20028;-76
2021/08/25 09:51:41;;;;;;;9.48;3.00;;;20.60;98.70;;;;;;5026719;28;20030;-76
2021/08/25 09:54:14;;;;;;;7.50;3.08;;;20.60;99.10;;;;;;5034020;28;20107;-76
2021/08/25 09:56:42;;;;;;;4.85;2.90;;;20.40;98.90;;;;;;5019700;28;20067;-76
2021/08/25 09:59:11;;;;;;;3.38;2.28;;;20.40;99.50;;;;;;5026366;28;20076;-76
2021/08/25 10:01:37;;;;;;;7.18;3.10;;;20.90;99.60;;;;;;5030160;28;20136;-76
2021/08/25 10:04:14;;;;;;;5.18;3.13;;;21.10;99.10;;;;;;5028527;28;20034;-76
2021/08/25 10:06:45;;;;;;;6.75;2.80;;;21.10;99.30;;;;;;5040640;28;20063;-76
2021/08/25 10:09:12;;;;;;;6.65;3.17;;;21.50;99.10;;;;;;5029129;28;20037;-76
2021/08/25 10:11:44;;;;;;;5.28;2.78;;;21.50;98.80;;;;;;5034324;28;20064;-76
2021/08/25 10:14:16;;;;;;;4.65;2.60;;;21.70;98.40;;;;;;5023528;28;20054;-75
2021/08/25 10:16:46;;;;;;;4.53;2.75;;;22.10;98.30;;;;;;5014840;28;20030;-76
2021/08/25 10:19:28;;;;;;;6.72;2.58;;;22.20;98.30;;;;;;5034167;28;20056;-76
2021/08/25 10:22:03;;;;;;;;;;;22.60;97.40;;;;;;5038809;28;21059;-76
2021/08/25 10:25:03;;;;;;;4.65;2.72;;;22.20;97.00;;;;;;5033773;28;19913;-75
2021/08/25 10:27:32;;;;;;;6.03;2.30;;;22.30;97.30;;;;;;5022772;28;20037;-77
2021/08/25 10:30:15;;;;;;;6.47;2.83;;;22.00;97.40;;;;;;5030293;28;20132;-76
2021/08/25 10:32:55;;;;;;;5.53;2.88;;;22.30;97.50;;;;;;5028188;28;20028;-77
2021/08/25 10:35:27;;;;;;;5.10;2.88;;;22.30;97.40;;;;;;5026135;28;20043;-77
2021/08/25 10:38:23;;;;;;;6.93;2.63;;;22.10;96.90;;;;;;5024096;28;20033;-77
2021/08/25 10:40:51;;;;;;;4.97;2.53;;;21.90;97.30;;;;;;5030326;28;20037;-77
2021/08/25 10:43:45;;;;;;;5.20;2.53;;;22.10;96.70;;;;;;5024171;28;20053;-77
2021/08/25 10:46:15;;;;;;;10.93;3.00;;;22.00;97.50;;;;;;5025624;28;20041;-77
2021/08/25 10:48:45;;;;;;;7.88;3.13;;;22.00;97.40;;;;;;5018220;28;20109;-77
2021/08/25 10:51:30;;;;;;;3.97;2.40;;;21.80;97.00;;;;;;5019870;28;20053;-77
2021/08/25 10:53:57;;;;;;;5.15;3.05;;;22.10;97.40;;;;;;5029063;28;20029;-77
2021/08/25 10:56:23;;;;;;;4.20;2.40;;;22.10;97.10;;;;;;5027198;28;20040;-77
2021/08/25 10:58:51;;;;;;;5.20;2.38;;;22.20;97.30;;;;;;5029305;28;20026;-77
2021/08/25 11:01:30;;;;;;;6.35;2.75;;;22.20;97.10;;;;;;5027984;28;20029;-77
2021/08/25 11:04:01;;;;;;;6.35;3.00;;;22.40;96.60;;;;;;5021136;28;20032;-77
2021/08/25 11:07:10;;;;;;;5.20;2.60;;;22.30;97.00;;;;;;5029797;28;20044;-77
2021/08/25 11:09:37;;;;;;;4.93;2.00;;;22.40;96.50;;;;;;4977960;28;20440;-77
2021/08/25 11:12:10;;;;;;;3.42;1.80;;;22.50;96.40;;;;;;5021861;28;20045;-77
2021/08/25 11:14:37;;;;;;;5.40;2.33;;;22.40;96.60;;;;;;5039149;28;20048;-77
2021/08/25 11:17:04;;;;;;;7.28;2.60;;;22.50;96.50;;;;;;5025876;28;20033;-77
2021/08/25 11:19:32;;;;;;;5.60;2.00;;;22.40;96.30;;;;;;5024446;28;20775;-77
2021/08/25 11:21:59;;;;;;;7.75;2.90;;;22.40;96.60;;;;;;5020095;28;20113;-77
2021/08/25 11:24:31;;;;;;;5.15;2.08;;;22.50;96.20;;;;;;5035158;28;20038;-77
2021/08/25 11:26:57;;;;;;;4.75;2.40;;;22.60;96.30;;;;;;5034330;28;20060;-77
2021/08/25 11:29:23;;;;;;;5.32;2.30;;;22.70;96.40;;;;;;5021306;28;20779;-77
2021/08/25 11:31:52;;;;;;;4.18;2.30;;;22.70;96.00;;;;;;5024466;28;20061;-77
2021/08/25 11:34:20;;;;;;;4.85;2.22;;;22.60;95.80;;;;;;5027628;28;20034;-77
2021/08/25 11:36:57;;;;;;;3.15;1.85;;;22.60;96.40;;;;;;5031200;28;20024;-77
2021/08/25 11:39:23;;;;;;;5.63;2.00;;;22.60;96.50;;;;;;5023861;28;20098;-77
2021/08/25 11:41:50;;;;;;;4.65;1.80;;;22.90;96.30;;;;;;5038601;28;20017;-77
2021/08/25 11:44:49;;;;;;;3.70;1.92;;;23.30;95.70;;;;;;5036154;28;20103;-77
2021/08/25 11:47:18;;;;;;;4.65;2.20;;;23.60;95.40;;;;;;5013480;28;20056;-77
2021/08/25 11:49:45;;;;;;;3.67;1.92;;;23.40;94.90;;;;;;5022805;28;20391;-77
2021/08/25 11:52:12;;;;;;;7.72;2.00;;;23.20;95.50;;;;;;5021910;28;20479;-77
2021/08/25 11:54:39;;;;;;;5.03;1.73;;;23.20;95.60;;;;;;5028397;28;20072;-77
2021/08/25 11:57:08;;;;;;;5.90;2.08;;;23.10;95.30;;;;;;5027426;28;20068;-77
2021/08/25 11:59:36;;;;;;;6.10;1.80;;;23.00;95.30;;;;;;5020360;28;20501;-77
2021/08/25 12:02:06;;;;;;;4.07;2.30;;;23.20;94.90;;;;;;5025326;28;20021;-77
2021/08/25 12:04:32;;;;;;;4.55;1.90;;;22.90;95.10;;;;;;5018834;28;20048;-76
2021/08/25 12:06:58;;;;;;;4.68;2.00;;;23.00;95.00;;;;;;5028113;28;20106;-79
2021/08/25 12:09:37;;;;;;;4.00;2.25;;;23.00;95.80;;;;;;5032419;28;20909;-77
2021/08/25 12:12:03;;;;;;;2.97;1.90;;;23.10;95.10;;;;;;5027419;28;20067;-77
2021/08/25 12:14:50;;;;;;;3.40;1.70;;;23.00;95.30;;;;;;5027459;28;20057;-77
2021/08/25 12:17:16;;;;;;;5.05;2.10;;;22.70;95.10;;;;;;5029022;28;20467;-77
2021/08/25 12:19:59;;;;;;;5.25;2.17;;;22.90;95.50;;;;;;5024407;28;20025;-77
2021/08/25 12:22:29;;;;;;;7.63;1.80;;;23.00;95.50;;;;;;5027890;28;20783;-77
2021/08/25 12:24:55;;;;;;;4.07;1.58;;;23.20;94.90;;;;;;5018959;28;20060;-77
2021/08/25 12:27:22;;;;;;;4.07;2.00;;;23.40;95.30;;;;;;5030734;28;20034;-75
2021/08/25 12:29:47;;;;;;;3.65;2.15;;;23.30;95.10;;;;;;5027363;28;20364;-74
2021/08/25 12:32:13;;;;;;;4.00;2.00;;;23.20;94.70;;;;;;5029597;28;20044;-74
2021/08/25 12:35:00;;;;;;;3.45;1.60;;;23.20;94.70;;;;;;5040653;28;20562;-75
2021/08/25 12:37:54;;;;;;;4.03;1.83;;;23.10;94.60;;;;;;5021596;28;20475;-74
2021/08/25 12:40:22;;;;;;;4.95;1.75;;;23.20;94.80;;;;;;5024645;28;20023;-74
2021/08/25 12:42:50;;;;;;;3.78;1.70;;;23.30;94.70;;;;;;5027315;28;20459;-74
2021/08/25 12:45:16;;;;;;;8.85;1.90;;;23.20;94.70;;;;;;5032149;28;20073;-75
2021/08/25 12:47:42;;;;;;;4.85;1.85;;;23.10;94.80;;;;;;5052096;28;20032;-74
2021/08/25 12:50:08;;;;;;;5.72;2.13;;;23.30;94.80;;;;;;5033836;28;20087;-74